sensor_id;sensor_type;location;lat;lon;timestamp;P1;durP1;ratioP1;P2;durP2;ratioP2
1507;SDS011;745;48.586;10.032;2022-12-20T00:03:04;34.00;;;19.90;;
1507;SDS011;745;48.586;10.032;2022-12-20T00:07:34;28.23;;;17.80;;
1507;SDS011;745;48.586;10.032;2022-12-20T00:12:04;31.40;;;20.00;;
1507;SDS011;745;48.586;10.032;2022-12-20T00:16:35;31.00;;;18.43;;
1507;SDS011;745;48.586;10.032;2022-12-20T00:21:06;35.40;;;18.77;;
1507;SDS011;745;48.586;10.032;2022-12-20T00:25:38;31.33;;;20.20;;
1507;SDS011;745;48.586;10.032;2022-12-20T00:30:08;26.37;;;16.53;;
1507;SDS011;745;48.586;10.032;2022-12-20T00:34:39;31.33;;;18.57;;
1507;SDS011;745;48.586;10.032;2022-12-20T00:39:09;30.77;;;17.83;;
1507;SDS011;745;48.586;10.032;2022-12-20T00:43:40;30.07;;;18.73;;
1507;SDS011;745;48.586;10.032;2022-12-20T00:48:10;29.50;;;18.87;;
1507;SDS011;745;48.586;10.032;2022-12-20T00:52:41;35.27;;;21.30;;
1507;SDS011;745;48.586;10.032;2022-12-20T00:57:11;34.10;;;20.30;;
1507;SDS011;745;48.586;10.032;2022-12-20T01:01:41;34.30;;;19.30;;
1507;SDS011;745;48.586;10.032;2022-12-20T01:06:12;35.27;;;17.37;;
1507;SDS011;745;48.586;10.032;2022-12-20T01:10:42;31.47;;;16.47;;
1507;SDS011;745;48.586;10.032;2022-12-20T01:15:13;24.47;;;15.10;;
1507;SDS011;745;48.586;10.032;2022-12-20T01:19:43;28.07;;;14.90;;
1507;SDS011;745;48.586;10.032;2022-12-20T01:24:15;22.97;;;14.03;;
1507;SDS011;745;48.586;10.032;2022-12-20T01:28:47;16.33;;;11.57;;
1507;SDS011;745;48.586;10.032;2022-12-20T01:33:17;23.37;;;14.70;;
1507;SDS011;745;48.586;10.032;2022-12-20T01:37:48;29.80;;;17.43;;
1507;SDS011;745;48.586;10.032;2022-12-20T01:42:18;26.73;;;16.27;;
1507;SDS011;745;48.586;10.032;2022-12-20T01:46:49;25.83;;;15.73;;
1507;SDS011;745;48.586;10.032;2022-12-20T01:51:21;24.00;;;16.80;;
1507;SDS011;745;48.586;10.032;2022-12-20T01:55:52;27.43;;;16.70;;
1507;SDS011;745;48.586;10.032;2022-12-20T02:00:22;29.03;;;16.50;;
1507;SDS011;745;48.586;10.032;2022-12-20T02:04:53;28.43;;;16.27;;
1507;SDS011;745;48.586;10.032;2022-12-20T02:09:24;23.20;;;15.20;;
1507;SDS011;745;48.586;10.032;2022-12-20T02:18:30;26.17;;;14.60;;
1507;SDS011;745;48.586;10.032;2022-12-20T02:28:00;25.43;;;15.70;;
1507;SDS011;745;48.586;10.032;2022-12-20T02:32:38;31.87;;;17.23;;
1507;SDS011;745;48.586;10.032;2022-12-20T02:37:12;30.97;;;16.17;;
1507;SDS011;745;48.586;10.032;2022-12-20T02:41:43;30.87;;;15.53;;
1507;SDS011;745;48.586;10.032;2022-12-20T02:46:16;30.73;;;15.47;;
1507;SDS011;745;48.586;10.032;2022-12-20T02:50:49;27.30;;;16.20;;
1507;SDS011;745;48.586;10.032;2022-12-20T02:55:23;25.37;;;13.60;;
1507;SDS011;745;48.586;10.032;2022-12-20T03:00:03;25.23;;;14.37;;
1507;SDS011;745;48.586;10.032;2022-12-20T03:04:36;24.80;;;15.47;;
1507;SDS011;745;48.586;10.032;2022-12-20T03:09:08;30.97;;;16.80;;
1507;SDS011;745;48.586;10.032;2022-12-20T03:13:38;27.03;;;16.57;;
1507;SDS011;745;48.586;10.032;2022-12-20T03:18:09;31.83;;;16.53;;
1507;SDS011;745;48.586;10.032;2022-12-20T03:22:39;29.17;;;17.67;;
1507;SDS011;745;48.586;10.032;2022-12-20T03:27:09;30.90;;;17.17;;
1507;SDS011;745;48.586;10.032;2022-12-20T03:31:40;28.30;;;17.40;;
1507;SDS011;745;48.586;10.032;2022-12-20T03:36:10;28.50;;;16.23;;
1507;SDS011;745;48.586;10.032;2022-12-20T03:40:40;23.07;;;15.07;;
1507;SDS011;745;48.586;10.032;2022-12-20T03:45:11;23.33;;;13.97;;
1507;SDS011;745;48.586;10.032;2022-12-20T03:49:41;23.23;;;14.07;;
1507;SDS011;745;48.586;10.032;2022-12-20T03:54:12;26.57;;;15.70;;
1507;SDS011;745;48.586;10.032;2022-12-20T03:58:42;27.33;;;16.23;;
1507;SDS011;745;48.586;10.032;2022-12-20T04:03:14;22.57;;;14.90;;
1507;SDS011;745;48.586;10.032;2022-12-20T04:07:44;22.20;;;14.40;;
1507;SDS011;745;48.586;10.032;2022-12-20T04:12:15;22.20;;;15.37;;
1507;SDS011;745;48.586;10.032;2022-12-20T04:16:45;25.03;;;16.00;;
1507;SDS011;745;48.586;10.032;2022-12-20T04:21:20;36.30;;;20.90;;
1507;SDS011;745;48.586;10.032;2022-12-20T04:25:51;31.83;;;18.33;;
1507;SDS011;745;48.586;10.032;2022-12-20T04:30:21;30.57;;;19.70;;
1507;SDS011;745;48.586;10.032;2022-12-20T04:34:52;32.77;;;19.83;;
1507;SDS011;745;48.586;10.032;2022-12-20T04:39:22;32.30;;;21.10;;
1507;SDS011;745;48.586;10.032;2022-12-20T04:43:53;31.93;;;19.27;;
1507;SDS011;745;48.586;10.032;2022-12-20T04:48:27;30.70;;;17.10;;
1507;SDS011;745;48.586;10.032;2022-12-20T04:52:57;32.73;;;20.00;;
1507;SDS011;745;48.586;10.032;2022-12-20T04:57:46;33.13;;;21.03;;
1507;SDS011;745;48.586;10.032;2022-12-20T05:02:17;28.70;;;18.10;;
1507;SDS011;745;48.586;10.032;2022-12-20T05:06:47;33.83;;;20.47;;
1507;SDS011;745;48.586;10.032;2022-12-20T05:11:17;34.30;;;20.60;;
1507;SDS011;745;48.586;10.032;2022-12-20T05:15:51;26.53;;;16.00;;
1507;SDS011;745;48.586;10.032;2022-12-20T05:20:23;29.17;;;16.50;;
1507;SDS011;745;48.586;10.032;2022-12-20T05:24:56;26.30;;;17.07;;
1507;SDS011;745;48.586;10.032;2022-12-20T05:29:45;34.57;;;19.37;;
1507;SDS011;745;48.586;10.032;2022-12-20T05:34:16;35.87;;;20.80;;
1507;SDS011;745;48.586;10.032;2022-12-20T05:38:46;31.10;;;17.90;;
1507;SDS011;745;48.586;10.032;2022-12-20T05:43:17;28.83;;;17.53;;
1507;SDS011;745;48.586;10.032;2022-12-20T05:47:48;32.60;;;17.67;;
1507;SDS011;745;48.586;10.032;2022-12-20T05:52:19;33.23;;;18.93;;
1507;SDS011;745;48.586;10.032;2022-12-20T05:56:49;26.60;;;17.27;;
1507;SDS011;745;48.586;10.032;2022-12-20T06:01:20;33.17;;;18.97;;
1507;SDS011;745;48.586;10.032;2022-12-20T06:05:50;30.07;;;20.03;;
1507;SDS011;745;48.586;10.032;2022-12-20T06:10:21;32.93;;;19.13;;
1507;SDS011;745;48.586;10.032;2022-12-20T06:14:51;30.83;;;18.80;;
1507;SDS011;745;48.586;10.032;2022-12-20T06:19:22;36.40;;;20.23;;
1507;SDS011;745;48.586;10.032;2022-12-20T06:23:53;37.37;;;20.80;;
1507;SDS011;745;48.586;10.032;2022-12-20T06:28:24;33.87;;;19.63;;
1507;SDS011;745;48.586;10.032;2022-12-20T06:32:54;28.33;;;17.37;;
1507;SDS011;745;48.586;10.032;2022-12-20T06:37:25;26.67;;;18.47;;
1507;SDS011;745;48.586;10.032;2022-12-20T06:41:56;24.20;;;16.17;;
1507;SDS011;745;48.586;10.032;2022-12-20T06:46:26;25.30;;;15.23;;
1507;SDS011;745;48.586;10.032;2022-12-20T06:50:56;30.53;;;18.77;;
1507;SDS011;745;48.586;10.032;2022-12-20T06:55:27;50.00;;;27.33;;
1507;SDS011;745;48.586;10.032;2022-12-20T06:59:57;48.80;;;27.07;;
1507;SDS011;745;48.586;10.032;2022-12-20T07:04:28;36.87;;;21.60;;
1507;SDS011;745;48.586;10.032;2022-12-20T07:08:58;27.83;;;18.67;;
1507;SDS011;745;48.586;10.032;2022-12-20T07:13:29;23.80;;;15.37;;
1507;SDS011;745;48.586;10.032;2022-12-20T07:18:00;26.53;;;15.60;;
1507;SDS011;745;48.586;10.032;2022-12-20T07:22:30;28.27;;;15.50;;
1507;SDS011;745;48.586;10.032;2022-12-20T07:27:00;22.13;;;15.67;;
1507;SDS011;745;48.586;10.032;2022-12-20T07:31:31;19.20;;;14.17;;
1507;SDS011;745;48.586;10.032;2022-12-20T07:36:02;19.67;;;13.73;;
1507;SDS011;745;48.586;10.032;2022-12-20T07:40:34;18.20;;;14.50;;
1507;SDS011;745;48.586;10.032;2022-12-20T07:45:04;18.83;;;12.90;;
1507;SDS011;745;48.586;10.032;2022-12-20T07:49:35;15.50;;;11.37;;
1507;SDS011;745;48.586;10.032;2022-12-20T07:54:10;15.10;;;11.07;;
1507;SDS011;745;48.586;10.032;2022-12-20T07:58:42;17.00;;;11.00;;
1507;SDS011;745;48.586;10.032;2022-12-20T08:03:15;16.00;;;11.87;;
1507;SDS011;745;48.586;10.032;2022-12-20T08:07:49;14.63;;;10.63;;
1507;SDS011;745;48.586;10.032;2022-12-20T08:12:19;13.37;;;10.30;;
1507;SDS011;745;48.586;10.032;2022-12-20T08:16:52;15.20;;;11.63;;
1507;SDS011;745;48.586;10.032;2022-12-20T08:21:22;14.70;;;10.83;;
1507;SDS011;745;48.586;10.032;2022-12-20T08:25:52;13.13;;;11.20;;
1507;SDS011;745;48.586;10.032;2022-12-20T08:30:23;15.40;;;11.60;;
1507;SDS011;745;48.586;10.032;2022-12-20T08:34:53;17.73;;;13.40;;
1507;SDS011;745;48.586;10.032;2022-12-20T08:39:24;15.67;;;11.97;;
1507;SDS011;745;48.586;10.032;2022-12-20T08:43:55;14.53;;;11.50;;
1507;SDS011;745;48.586;10.032;2022-12-20T08:48:25;16.07;;;12.10;;
1507;SDS011;745;48.586;10.032;2022-12-20T08:52:56;22.93;;;15.90;;
1507;SDS011;745;48.586;10.032;2022-12-20T08:57:27;17.93;;;13.47;;
1507;SDS011;745;48.586;10.032;2022-12-20T09:01:57;18.33;;;13.73;;
1507;SDS011;745;48.586;10.032;2022-12-20T09:06:27;18.73;;;11.40;;
1507;SDS011;745;48.586;10.032;2022-12-20T09:11:12;18.10;;;10.80;;
1507;SDS011;745;48.586;10.032;2022-12-20T09:15:44;16.73;;;11.27;;
1507;SDS011;745;48.586;10.032;2022-12-20T09:20:15;16.70;;;10.40;;
1507;SDS011;745;48.586;10.032;2022-12-20T09:24:45;17.40;;;10.60;;
1507;SDS011;745;48.586;10.032;2022-12-20T09:29:16;24.77;;;13.20;;
1507;SDS011;745;48.586;10.032;2022-12-20T09:33:46;21.93;;;11.70;;
1507;SDS011;745;48.586;10.032;2022-12-20T09:38:17;25.80;;;12.70;;
1507;SDS011;745;48.586;10.032;2022-12-20T09:42:47;26.33;;;13.67;;
1507;SDS011;745;48.586;10.032;2022-12-20T09:47:22;30.80;;;14.07;;
1507;SDS011;745;48.586;10.032;2022-12-20T09:56:43;24.07;;;12.30;;
1507;SDS011;745;48.586;10.032;2022-12-20T10:01:16;25.80;;;14.87;;
1507;SDS011;745;48.586;10.032;2022-12-20T10:05:53;21.80;;;13.13;;
1507;SDS011;745;48.586;10.032;2022-12-20T10:10:33;21.90;;;12.60;;
1507;SDS011;745;48.586;10.032;2022-12-20T10:19:57;23.57;;;12.20;;
1507;SDS011;745;48.586;10.032;2022-12-20T10:24:33;18.50;;;11.77;;
1507;SDS011;745;48.586;10.032;2022-12-20T10:29:04;19.43;;;11.40;;
1507;SDS011;745;48.586;10.032;2022-12-20T10:33:34;18.57;;;10.80;;
1507;SDS011;745;48.586;10.032;2022-12-20T10:38:06;17.70;;;10.07;;
1507;SDS011;745;48.586;10.032;2022-12-20T10:42:42;18.80;;;12.43;;
1507;SDS011;745;48.586;10.032;2022-12-20T10:47:21;18.17;;;11.30;;
1507;SDS011;745;48.586;10.032;2022-12-20T10:56:37;14.57;;;10.93;;
1507;SDS011;745;48.586;10.032;2022-12-20T11:01:14;12.70;;;10.30;;
1507;SDS011;745;48.586;10.032;2022-12-20T11:10:32;17.27;;;11.70;;
1507;SDS011;745;48.586;10.032;2022-12-20T11:15:07;16.27;;;11.40;;
1507;SDS011;745;48.586;10.032;2022-12-20T11:19:46;12.87;;;10.40;;
1507;SDS011;745;48.586;10.032;2022-12-20T11:48:54;18.50;;;13.03;;
1507;SDS011;745;48.586;10.032;2022-12-20T11:54:03;16.57;;;10.80;;
1507;SDS011;745;48.586;10.032;2022-12-20T12:04:08;35.67;;;22.40;;
1507;SDS011;745;48.586;10.032;2022-12-20T12:08:44;31.60;;;22.43;;
1507;SDS011;745;48.586;10.032;2022-12-20T12:13:23;23.57;;;17.20;;
1507;SDS011;745;48.586;10.032;2022-12-20T12:17:58;19.87;;;13.77;;
1507;SDS011;745;48.586;10.032;2022-12-20T12:22:31;18.93;;;13.60;;
1507;SDS011;745;48.586;10.032;2022-12-20T12:27:03;21.93;;;15.00;;
1507;SDS011;745;48.586;10.032;2022-12-20T12:31:35;23.57;;;16.40;;
1507;SDS011;745;48.586;10.032;2022-12-20T12:36:18;20.37;;;14.57;;
1507;SDS011;745;48.586;10.032;2022-12-20T12:45:56;19.10;;;15.03;;
1507;SDS011;745;48.586;10.032;2022-12-20T12:50:28;19.40;;;14.40;;
1507;SDS011;745;48.586;10.032;2022-12-20T12:55:02;20.73;;;14.53;;
1507;SDS011;745;48.586;10.032;2022-12-20T13:04:19;22.85;;;16.92;;
1507;SDS011;745;48.586;10.032;2022-12-20T13:13:28;20.47;;;14.93;;
1507;SDS011;745;48.586;10.032;2022-12-20T13:17:59;22.00;;;14.77;;
1507;SDS011;745;48.586;10.032;2022-12-20T13:22:30;19.97;;;15.57;;
1507;SDS011;745;48.586;10.032;2022-12-20T13:27:01;16.17;;;13.23;;
1507;SDS011;745;48.586;10.032;2022-12-20T13:31:51;16.00;;;13.00;;
1507;SDS011;745;48.586;10.032;2022-12-20T13:36:29;17.70;;;14.00;;
1507;SDS011;745;48.586;10.032;2022-12-20T13:41:00;17.77;;;12.53;;
1507;SDS011;745;48.586;10.032;2022-12-20T13:45:31;24.03;;;14.80;;
1507;SDS011;745;48.586;10.032;2022-12-20T13:50:16;17.20;;;13.77;;
1507;SDS011;745;48.586;10.032;2022-12-20T13:54:51;19.90;;;13.60;;
1507;SDS011;745;48.586;10.032;2022-12-20T13:59:29;20.80;;;13.60;;
1507;SDS011;745;48.586;10.032;2022-12-20T14:04:02;19.67;;;14.20;;
1507;SDS011;745;48.586;10.032;2022-12-20T14:08:35;16.73;;;12.33;;
1507;SDS011;745;48.586;10.032;2022-12-20T14:13:23;13.53;;;10.33;;
1507;SDS011;745;48.586;10.032;2022-12-20T14:17:55;14.80;;;11.10;;
1507;SDS011;745;48.586;10.032;2022-12-20T14:22:25;11.93;;;10.13;;
1507;SDS011;745;48.586;10.032;2022-12-20T14:26:56;11.30;;;9.37;;
1507;SDS011;745;48.586;10.032;2022-12-20T14:31:28;10.40;;;9.23;;
1507;SDS011;745;48.586;10.032;2022-12-20T14:36:16;12.30;;;9.77;;
1507;SDS011;745;48.586;10.032;2022-12-20T14:40:50;12.13;;;10.40;;
1507;SDS011;745;48.586;10.032;2022-12-20T14:45:22;13.57;;;11.40;;
1507;SDS011;745;48.586;10.032;2022-12-20T14:49:56;19.20;;;13.83;;
1507;SDS011;745;48.586;10.032;2022-12-20T14:54:28;23.70;;;14.37;;
1507;SDS011;745;48.586;10.032;2022-12-20T14:59:09;17.27;;;12.80;;
1507;SDS011;745;48.586;10.032;2022-12-20T15:03:50;18.73;;;12.50;;
1507;SDS011;745;48.586;10.032;2022-12-20T15:12:59;18.10;;;12.80;;
1507;SDS011;745;48.586;10.032;2022-12-20T15:17:29;21.70;;;14.77;;
1507;SDS011;745;48.586;10.032;2022-12-20T15:21:59;19.80;;;14.20;;
1507;SDS011;745;48.586;10.032;2022-12-20T15:26:30;20.30;;;14.90;;
1507;SDS011;745;48.586;10.032;2022-12-20T15:31:00;24.10;;;16.40;;
1507;SDS011;745;48.586;10.032;2022-12-20T15:35:31;21.00;;;15.40;;
1507;SDS011;745;48.586;10.032;2022-12-20T15:40:02;26.03;;;17.17;;
1507;SDS011;745;48.586;10.032;2022-12-20T15:44:33;24.83;;;18.77;;
1507;SDS011;745;48.586;10.032;2022-12-20T15:49:05;28.10;;;21.30;;
1507;SDS011;745;48.586;10.032;2022-12-20T15:53:35;27.00;;;19.50;;
1507;SDS011;745;48.586;10.032;2022-12-20T15:58:05;27.43;;;19.10;;
1507;SDS011;745;48.586;10.032;2022-12-20T16:02:35;32.00;;;21.17;;
1507;SDS011;745;48.586;10.032;2022-12-20T16:07:07;34.33;;;24.40;;
1507;SDS011;745;48.586;10.032;2022-12-20T16:11:39;40.57;;;27.67;;
1507;SDS011;745;48.586;10.032;2022-12-20T16:16:12;36.33;;;26.00;;
1507;SDS011;745;48.586;10.032;2022-12-20T16:20:46;45.57;;;30.27;;
1507;SDS011;745;48.586;10.032;2022-12-20T16:25:32;42.87;;;29.07;;
1507;SDS011;745;48.586;10.032;2022-12-20T16:30:04;41.67;;;26.90;;
1507;SDS011;745;48.586;10.032;2022-12-20T16:34:35;30.63;;;21.80;;
1507;SDS011;745;48.586;10.032;2022-12-20T16:39:06;28.10;;;20.30;;
1507;SDS011;745;48.586;10.032;2022-12-20T16:43:39;24.70;;;20.10;;
1507;SDS011;745;48.586;10.032;2022-12-20T16:48:09;28.50;;;19.70;;
1507;SDS011;745;48.586;10.032;2022-12-20T16:52:42;30.33;;;21.00;;
1507;SDS011;745;48.586;10.032;2022-12-20T16:57:12;25.10;;;18.17;;
1507;SDS011;745;48.586;10.032;2022-12-20T17:01:43;23.57;;;17.07;;
1507;SDS011;745;48.586;10.032;2022-12-20T17:06:14;21.97;;;15.07;;
1507;SDS011;745;48.586;10.032;2022-12-20T17:10:45;21.30;;;16.13;;
1507;SDS011;745;48.586;10.032;2022-12-20T17:15:24;21.90;;;14.37;;
1507;SDS011;745;48.586;10.032;2022-12-20T17:19:56;19.17;;;16.30;;
1507;SDS011;745;48.586;10.032;2022-12-20T17:24:27;19.40;;;15.90;;
1507;SDS011;745;48.586;10.032;2022-12-20T17:28:58;20.20;;;14.00;;
1507;SDS011;745;48.586;10.032;2022-12-20T17:33:29;16.87;;;13.53;;
1507;SDS011;745;48.586;10.032;2022-12-20T17:38:00;21.30;;;16.50;;
1507;SDS011;745;48.586;10.032;2022-12-20T17:42:30;15.80;;;13.60;;
1507;SDS011;745;48.586;10.032;2022-12-20T17:47:01;15.50;;;11.00;;
1507;SDS011;745;48.586;10.032;2022-12-20T17:51:31;14.50;;;12.00;;
1507;SDS011;745;48.586;10.032;2022-12-20T17:56:02;16.57;;;13.37;;
1507;SDS011;745;48.586;10.032;2022-12-20T18:00:32;14.03;;;11.63;;
1507;SDS011;745;48.586;10.032;2022-12-20T18:05:03;16.87;;;12.17;;
1507;SDS011;745;48.586;10.032;2022-12-20T18:09:34;17.30;;;13.60;;
1507;SDS011;745;48.586;10.032;2022-12-20T18:14:04;18.97;;;15.50;;
1507;SDS011;745;48.586;10.032;2022-12-20T18:18:35;17.10;;;13.17;;
1507;SDS011;745;48.586;10.032;2022-12-20T18:23:05;15.17;;;12.40;;
1507;SDS011;745;48.586;10.032;2022-12-20T18:27:36;13.13;;;11.47;;
1507;SDS011;745;48.586;10.032;2022-12-20T18:32:07;14.97;;;11.60;;
1507;SDS011;745;48.586;10.032;2022-12-20T18:36:38;12.60;;;10.43;;
1507;SDS011;745;48.586;10.032;2022-12-20T18:41:10;14.03;;;12.03;;
1507;SDS011;745;48.586;10.032;2022-12-20T18:45:41;16.07;;;13.60;;
1507;SDS011;745;48.586;10.032;2022-12-20T18:50:12;22.33;;;15.53;;
1507;SDS011;745;48.586;10.032;2022-12-20T18:54:43;21.30;;;17.30;;
1507;SDS011;745;48.586;10.032;2022-12-20T18:59:13;21.00;;;16.73;;
1507;SDS011;745;48.586;10.032;2022-12-20T19:03:44;20.37;;;15.90;;
1507;SDS011;745;48.586;10.032;2022-12-20T19:08:15;19.50;;;15.07;;
1507;SDS011;745;48.586;10.032;2022-12-20T19:12:45;18.63;;;15.10;;
1507;SDS011;745;48.586;10.032;2022-12-20T19:17:15;25.57;;;16.90;;
1507;SDS011;745;48.586;10.032;2022-12-20T19:21:47;22.27;;;17.10;;
1507;SDS011;745;48.586;10.032;2022-12-20T19:26:18;21.77;;;15.07;;
1507;SDS011;745;48.586;10.032;2022-12-20T19:30:49;17.80;;;13.47;;
1507;SDS011;745;48.586;10.032;2022-12-20T19:35:20;15.80;;;12.43;;
1507;SDS011;745;48.586;10.032;2022-12-20T19:39:51;13.67;;;11.37;;
1507;SDS011;745;48.586;10.032;2022-12-20T19:44:21;16.90;;;11.90;;
1507;SDS011;745;48.586;10.032;2022-12-20T19:48:52;17.53;;;12.90;;
1507;SDS011;745;48.586;10.032;2022-12-20T19:53:24;19.40;;;14.53;;
1507;SDS011;745;48.586;10.032;2022-12-20T19:57:54;17.67;;;13.77;;
1507;SDS011;745;48.586;10.032;2022-12-20T20:02:24;13.97;;;12.50;;
1507;SDS011;745;48.586;10.032;2022-12-20T20:06:55;15.40;;;12.47;;
1507;SDS011;745;48.586;10.032;2022-12-20T20:11:26;18.90;;;13.37;;
1507;SDS011;745;48.586;10.032;2022-12-20T20:15:58;14.23;;;12.80;;
1507;SDS011;745;48.586;10.032;2022-12-20T20:20:29;19.17;;;13.87;;
1507;SDS011;745;48.586;10.032;2022-12-20T20:25:00;19.70;;;15.60;;
1507;SDS011;745;48.586;10.032;2022-12-20T20:29:30;18.83;;;14.60;;
1507;SDS011;745;48.586;10.032;2022-12-20T20:34:01;17.40;;;13.90;;
1507;SDS011;745;48.586;10.032;2022-12-20T20:38:32;19.00;;;13.50;;
1507;SDS011;745;48.586;10.032;2022-12-20T20:43:03;19.90;;;15.80;;
1507;SDS011;745;48.586;10.032;2022-12-20T20:47:33;21.47;;;15.30;;
1507;SDS011;745;48.586;10.032;2022-12-20T20:52:03;18.50;;;14.17;;
1507;SDS011;745;48.586;10.032;2022-12-20T20:56:34;16.10;;;11.87;;
1507;SDS011;745;48.586;10.032;2022-12-20T21:01:05;16.53;;;12.13;;
1507;SDS011;745;48.586;10.032;2022-12-20T21:05:39;12.70;;;10.60;;
1507;SDS011;745;48.586;10.032;2022-12-20T21:10:10;18.47;;;12.57;;
1507;SDS011;745;48.586;10.032;2022-12-20T21:14:40;17.23;;;13.30;;
1507;SDS011;745;48.586;10.032;2022-12-20T21:19:11;18.40;;;13.87;;
1507;SDS011;745;48.586;10.032;2022-12-20T21:23:45;18.47;;;11.87;;
1507;SDS011;745;48.586;10.032;2022-12-20T21:28:16;19.37;;;12.67;;
1507;SDS011;745;48.586;10.032;2022-12-20T21:32:46;13.47;;;9.37;;
1507;SDS011;745;48.586;10.032;2022-12-20T21:37:16;10.30;;;9.20;;
1507;SDS011;745;48.586;10.032;2022-12-20T21:41:47;12.80;;;9.33;;
1507;SDS011;745;48.586;10.032;2022-12-20T21:46:18;21.07;;;13.50;;
1507;SDS011;745;48.586;10.032;2022-12-20T21:55:35;14.10;;;10.80;;
1507;SDS011;745;48.586;10.032;2022-12-20T22:00:06;12.77;;;10.17;;
1507;SDS011;745;48.586;10.032;2022-12-20T22:04:37;13.50;;;10.07;;
1507;SDS011;745;48.586;10.032;2022-12-20T22:09:08;13.27;;;9.83;;
1507;SDS011;745;48.586;10.032;2022-12-20T22:13:41;13.60;;;9.77;;
1507;SDS011;745;48.586;10.032;2022-12-20T22:18:11;11.60;;;8.87;;
1507;SDS011;745;48.586;10.032;2022-12-20T22:22:42;9.37;;;8.17;;
1507;SDS011;745;48.586;10.032;2022-12-20T22:27:12;9.00;;;7.47;;
1507;SDS011;745;48.586;10.032;2022-12-20T22:31:42;8.73;;;6.63;;
1507;SDS011;745;48.586;10.032;2022-12-20T22:36:13;7.90;;;7.10;;
1507;SDS011;745;48.586;10.032;2022-12-20T22:40:44;8.87;;;7.10;;
1507;SDS011;745;48.586;10.032;2022-12-20T22:45:14;7.23;;;6.13;;
1507;SDS011;745;48.586;10.032;2022-12-20T22:49:45;7.60;;;6.07;;
1507;SDS011;745;48.586;10.032;2022-12-20T22:54:15;7.00;;;6.30;;
1507;SDS011;745;48.586;10.032;2022-12-20T22:58:45;8.63;;;6.40;;
1507;SDS011;745;48.586;10.032;2022-12-20T23:03:16;6.70;;;5.43;;
1507;SDS011;745;48.586;10.032;2022-12-20T23:07:46;7.70;;;6.90;;
1507;SDS011;745;48.586;10.032;2022-12-20T23:12:17;8.90;;;7.17;;
1507;SDS011;745;48.586;10.032;2022-12-20T23:17:07;6.50;;;5.90;;
1507;SDS011;745;48.586;10.032;2022-12-20T23:21:38;6.00;;;5.40;;
1507;SDS011;745;48.586;10.032;2022-12-20T23:26:28;5.93;;;4.80;;
1507;SDS011;745;48.586;10.032;2022-12-20T23:30:58;5.20;;;4.70;;
1507;SDS011;745;48.586;10.032;2022-12-20T23:35:28;5.87;;;5.20;;
1507;SDS011;745;48.586;10.032;2022-12-20T23:39:59;5.97;;;5.37;;
1507;SDS011;745;48.586;10.032;2022-12-20T23:44:29;7.13;;;5.73;;
1507;SDS011;745;48.586;10.032;2022-12-20T23:48:59;7.30;;;6.10;;
1507;SDS011;745;48.586;10.032;2022-12-20T23:53:30;7.63;;;6.70;;
1507;SDS011;745;48.586;10.032;2022-12-20T23:58:00;7.27;;;5.77;;
